Terminal Aerodrome Forecast
Issued by NWS

Home | Current Version | Previous Version | Text Only | Print | Product List | Glossary On
Versions: 1 2 3 4 5 6 7 8 9 10 11 12 13 14 15 16 17 18 19 20 21 22 23 24 25 26 27
000
FTUS43 KILX 270608 AAA
TAFBMI
TAF AMD
KBMI 270608Z 2706/2806 35004KT 1SM BR BKN002
      TEMPO 2706/2710 1/4SM FG
     FM271300 03005KT P6SM SCT003
     FM271800 07005KT P6SM SCT150
     FM280300 12006KT P6SM SHRA VCTS SCT035CB OVC090=

USA.gov is the U.S. government's official web portal to all federal, state and local government web resources and services.